sensor_id;sensor_type;location;lat;lon;timestamp;P1;durP1;ratioP1;P2;durP2;ratioP2
9292;SDS011;69930;48.232;12.384;2024-03-08T00:02:13;19.23;;;16.55;;
9292;SDS011;69930;48.232;12.384;2024-03-08T00:04:40;18.17;;;15.38;;
9292;SDS011;69930;48.232;12.384;2024-03-08T00:07:09;19.60;;;16.70;;
9292;SDS011;69930;48.232;12.384;2024-03-08T00:09:36;18.73;;;16.05;;
9292;SDS011;69930;48.232;12.384;2024-03-08T00:12:03;19.13;;;16.80;;
9292;SDS011;69930;48.232;12.384;2024-03-08T00:14:31;20.10;;;16.55;;
9292;SDS011;69930;48.232;12.384;2024-03-08T00:16:58;20.33;;;16.98;;
9292;SDS011;69930;48.232;12.384;2024-03-08T00:19:25;19.10;;;16.45;;
9292;SDS011;69930;48.232;12.384;2024-03-08T00:21:53;19.23;;;15.75;;
9292;SDS011;69930;48.232;12.384;2024-03-08T00:24:22;20.33;;;16.48;;
9292;SDS011;69930;48.232;12.384;2024-03-08T00:26:50;19.90;;;17.13;;
9292;SDS011;69930;48.232;12.384;2024-03-08T00:29:19;18.35;;;16.33;;
9292;SDS011;69930;48.232;12.384;2024-03-08T00:31:47;21.02;;;17.08;;
9292;SDS011;69930;48.232;12.384;2024-03-08T00:34:14;19.83;;;17.23;;
9292;SDS011;69930;48.232;12.384;2024-03-08T00:36:41;18.65;;;15.90;;
9292;SDS011;69930;48.232;12.384;2024-03-08T00:39:09;21.70;;;18.27;;
9292;SDS011;69930;48.232;12.384;2024-03-08T00:41:38;19.30;;;17.23;;
9292;SDS011;69930;48.232;12.384;2024-03-08T00:44:05;20.33;;;17.83;;
9292;SDS011;69930;48.232;12.384;2024-03-08T00:46:32;22.38;;;18.50;;
9292;SDS011;69930;48.232;12.384;2024-03-08T00:49:00;21.63;;;18.08;;
9292;SDS011;69930;48.232;12.384;2024-03-08T00:51:27;21.67;;;17.75;;
9292;SDS011;69930;48.232;12.384;2024-03-08T00:53:54;21.90;;;18.38;;
9292;SDS011;69930;48.232;12.384;2024-03-08T00:56:21;22.17;;;19.25;;
9292;SDS011;69930;48.232;12.384;2024-03-08T00:58:51;22.52;;;19.13;;
9292;SDS011;69930;48.232;12.384;2024-03-08T01:01:18;20.33;;;17.85;;
9292;SDS011;69930;48.232;12.384;2024-03-08T01:03:45;20.85;;;17.63;;
9292;SDS011;69930;48.232;12.384;2024-03-08T01:06:14;21.13;;;18.02;;
9292;SDS011;69930;48.232;12.384;2024-03-08T01:08:41;22.90;;;19.00;;
9292;SDS011;69930;48.232;12.384;2024-03-08T01:11:08;22.77;;;18.67;;
9292;SDS011;69930;48.232;12.384;2024-03-08T01:13:36;22.58;;;19.20;;
9292;SDS011;69930;48.232;12.384;2024-03-08T01:16:05;23.48;;;18.90;;
9292;SDS011;69930;48.232;12.384;2024-03-08T01:18:32;23.45;;;19.83;;
9292;SDS011;69930;48.232;12.384;2024-03-08T01:20:59;22.33;;;19.70;;
9292;SDS011;69930;48.232;12.384;2024-03-08T01:23:26;22.92;;;18.92;;
9292;SDS011;69930;48.232;12.384;2024-03-08T01:25:54;24.83;;;19.60;;
9292;SDS011;69930;48.232;12.384;2024-03-08T01:28:23;20.20;;;17.80;;
9292;SDS011;69930;48.232;12.384;2024-03-08T01:30:50;22.45;;;19.00;;
9292;SDS011;69930;48.232;12.384;2024-03-08T01:33:22;25.90;;;20.35;;
9292;SDS011;69930;48.232;12.384;2024-03-08T01:35:51;23.33;;;19.75;;
9292;SDS011;69930;48.232;12.384;2024-03-08T01:38:18;25.05;;;20.25;;
9292;SDS011;69930;48.232;12.384;2024-03-08T01:40:46;23.40;;;19.85;;
9292;SDS011;69930;48.232;12.384;2024-03-08T01:43:17;23.88;;;19.40;;
9292;SDS011;69930;48.232;12.384;2024-03-08T01:45:45;25.20;;;20.83;;
9292;SDS011;69930;48.232;12.384;2024-03-08T01:48:13;24.60;;;19.40;;
9292;SDS011;69930;48.232;12.384;2024-03-08T01:50:42;22.98;;;18.75;;
9292;SDS011;69930;48.232;12.384;2024-03-08T01:53:09;25.77;;;21.23;;
9292;SDS011;69930;48.232;12.384;2024-03-08T01:55:38;26.15;;;20.77;;
9292;SDS011;69930;48.232;12.384;2024-03-08T01:58:05;22.90;;;19.92;;
9292;SDS011;69930;48.232;12.384;2024-03-08T02:00:35;25.98;;;20.90;;
9292;SDS011;69930;48.232;12.384;2024-03-08T02:03:05;26.73;;;21.42;;
9292;SDS011;69930;48.232;12.384;2024-03-08T02:05:32;25.63;;;21.80;;
9292;SDS011;69930;48.232;12.384;2024-03-08T02:08:01;27.48;;;21.02;;
9292;SDS011;69930;48.232;12.384;2024-03-08T02:10:29;25.50;;;19.35;;
9292;SDS011;69930;48.232;12.384;2024-03-08T02:12:56;28.77;;;22.83;;
9292;SDS011;69930;48.232;12.384;2024-03-08T02:15:23;28.08;;;23.20;;
9292;SDS011;69930;48.232;12.384;2024-03-08T02:17:51;30.52;;;23.35;;
9292;SDS011;69930;48.232;12.384;2024-03-08T02:20:18;28.33;;;23.05;;
9292;SDS011;69930;48.232;12.384;2024-03-08T02:22:47;29.23;;;23.30;;
9292;SDS011;69930;48.232;12.384;2024-03-08T02:25:16;32.42;;;25.13;;
9292;SDS011;69930;48.232;12.384;2024-03-08T02:27:44;33.58;;;26.10;;
9292;SDS011;69930;48.232;12.384;2024-03-08T02:30:11;30.98;;;24.05;;
9292;SDS011;69930;48.232;12.384;2024-03-08T02:32:39;34.15;;;25.27;;
9292;SDS011;69930;48.232;12.384;2024-03-08T02:35:06;32.90;;;25.52;;
9292;SDS011;69930;48.232;12.384;2024-03-08T02:37:33;36.30;;;27.27;;
9292;SDS011;69930;48.232;12.384;2024-03-08T02:40:01;35.38;;;26.80;;
9292;SDS011;69930;48.232;12.384;2024-03-08T02:42:29;32.45;;;25.08;;
9292;SDS011;69930;48.232;12.384;2024-03-08T02:44:56;40.00;;;28.90;;
9292;SDS011;69930;48.232;12.384;2024-03-08T02:47:23;37.70;;;27.77;;
9292;SDS011;69930;48.232;12.384;2024-03-08T02:49:51;37.67;;;28.23;;
9292;SDS011;69930;48.232;12.384;2024-03-08T02:52:18;36.00;;;27.75;;
9292;SDS011;69930;48.232;12.384;2024-03-08T02:54:47;38.80;;;28.75;;
9292;SDS011;69930;48.232;12.384;2024-03-08T02:57:16;40.30;;;28.90;;
9292;SDS011;69930;48.232;12.384;2024-03-08T02:59:43;40.60;;;30.45;;
9292;SDS011;69930;48.232;12.384;2024-03-08T03:02:11;43.08;;;32.10;;
9292;SDS011;69930;48.232;12.384;2024-03-08T03:04:39;42.72;;;30.75;;
9292;SDS011;69930;48.232;12.384;2024-03-08T03:07:07;45.20;;;32.60;;
9292;SDS011;69930;48.232;12.384;2024-03-08T03:09:34;44.03;;;32.05;;
9292;SDS011;69930;48.232;12.384;2024-03-08T03:12:01;50.50;;;34.95;;
9292;SDS011;69930;48.232;12.384;2024-03-08T03:14:30;50.75;;;35.85;;
9292;SDS011;69930;48.232;12.384;2024-03-08T03:16:57;49.65;;;35.17;;
9292;SDS011;69930;48.232;12.384;2024-03-08T03:19:24;49.55;;;34.85;;
9292;SDS011;69930;48.232;12.384;2024-03-08T03:21:53;47.67;;;34.17;;
9292;SDS011;69930;48.232;12.384;2024-03-08T03:24:20;54.70;;;37.47;;
9292;SDS011;69930;48.232;12.384;2024-03-08T03:26:48;51.15;;;36.00;;
9292;SDS011;69930;48.232;12.384;2024-03-08T03:29:17;54.78;;;37.88;;
9292;SDS011;69930;48.232;12.384;2024-03-08T03:31:46;55.47;;;38.38;;
9292;SDS011;69930;48.232;12.384;2024-03-08T03:34:13;55.00;;;38.50;;
9292;SDS011;69930;48.232;12.384;2024-03-08T03:36:40;54.67;;;37.97;;
9292;SDS011;69930;48.232;12.384;2024-03-08T03:39:10;56.72;;;38.97;;
9292;SDS011;69930;48.232;12.384;2024-03-08T03:41:41;60.70;;;39.58;;
9292;SDS011;69930;48.232;12.384;2024-03-08T03:44:09;58.38;;;39.78;;
9292;SDS011;69930;48.232;12.384;2024-03-08T03:46:37;60.00;;;39.20;;
9292;SDS011;69930;48.232;12.384;2024-03-08T03:49:05;59.53;;;39.08;;
9292;SDS011;69930;48.232;12.384;2024-03-08T03:51:32;63.10;;;40.40;;
9292;SDS011;69930;48.232;12.384;2024-03-08T03:54:00;61.83;;;41.20;;
9292;SDS011;69930;48.232;12.384;2024-03-08T03:56:28;62.40;;;41.45;;
9292;SDS011;69930;48.232;12.384;2024-03-08T03:58:56;64.35;;;41.95;;
9292;SDS011;69930;48.232;12.384;2024-03-08T04:01:23;61.72;;;41.05;;
9292;SDS011;69930;48.232;12.384;2024-03-08T04:03:51;61.25;;;40.45;;
9292;SDS011;69930;48.232;12.384;2024-03-08T04:06:19;68.57;;;43.67;;
9292;SDS011;69930;48.232;12.384;2024-03-08T04:08:47;60.20;;;40.78;;
9292;SDS011;69930;48.232;12.384;2024-03-08T04:11:14;62.65;;;40.95;;
9292;SDS011;69930;48.232;12.384;2024-03-08T04:13:42;60.25;;;40.63;;
9292;SDS011;69930;48.232;12.384;2024-03-08T04:16:09;63.97;;;42.67;;
9292;SDS011;69930;48.232;12.384;2024-03-08T04:18:36;62.17;;;41.17;;
9292;SDS011;69930;48.232;12.384;2024-03-08T04:21:04;59.83;;;40.10;;
9292;SDS011;69930;48.232;12.384;2024-03-08T04:23:34;62.47;;;41.95;;
9292;SDS011;69930;48.232;12.384;2024-03-08T04:26:01;59.67;;;40.85;;
9292;SDS011;69930;48.232;12.384;2024-03-08T04:28:28;61.30;;;40.72;;
9292;SDS011;69930;48.232;12.384;2024-03-08T04:30:56;63.65;;;42.42;;
9292;SDS011;69930;48.232;12.384;2024-03-08T04:33:25;60.53;;;40.28;;
9292;SDS011;69930;48.232;12.384;2024-03-08T04:35:53;61.67;;;41.40;;
9292;SDS011;69930;48.232;12.384;2024-03-08T04:38:20;59.13;;;40.80;;
9292;SDS011;69930;48.232;12.384;2024-03-08T04:40:49;64.20;;;42.85;;
9292;SDS011;69930;48.232;12.384;2024-03-08T04:43:16;65.55;;;43.85;;
9292;SDS011;69930;48.232;12.384;2024-03-08T04:45:46;64.28;;;41.97;;
9292;SDS011;69930;48.232;12.384;2024-03-08T04:48:13;64.85;;;43.70;;
9292;SDS011;69930;48.232;12.384;2024-03-08T04:50:41;62.00;;;41.67;;
9292;SDS011;69930;48.232;12.384;2024-03-08T04:53:08;67.60;;;44.25;;
9292;SDS011;69930;48.232;12.384;2024-03-08T04:55:35;60.85;;;41.30;;
9292;SDS011;69930;48.232;12.384;2024-03-08T04:58:04;65.55;;;43.33;;
9292;SDS011;69930;48.232;12.384;2024-03-08T05:00:32;66.75;;;44.20;;
9292;SDS011;69930;48.232;12.384;2024-03-08T05:02:59;60.08;;;41.17;;
9292;SDS011;69930;48.232;12.384;2024-03-08T05:05:26;63.92;;;42.50;;
9292;SDS011;69930;48.232;12.384;2024-03-08T05:07:54;62.50;;;42.88;;
9292;SDS011;69930;48.232;12.384;2024-03-08T05:10:21;63.33;;;42.13;;
9292;SDS011;69930;48.232;12.384;2024-03-08T05:12:48;62.60;;;43.55;;
9292;SDS011;69930;48.232;12.384;2024-03-08T05:15:16;65.65;;;43.22;;
9292;SDS011;69930;48.232;12.384;2024-03-08T05:17:45;68.03;;;43.15;;
9292;SDS011;69930;48.232;12.384;2024-03-08T05:20:12;63.97;;;43.22;;
9292;SDS011;69930;48.232;12.384;2024-03-08T05:22:40;67.20;;;45.08;;
9292;SDS011;69930;48.232;12.384;2024-03-08T05:25:07;60.15;;;42.03;;
9292;SDS011;69930;48.232;12.384;2024-03-08T05:27:35;61.45;;;42.55;;
9292;SDS011;69930;48.232;12.384;2024-03-08T05:30:02;64.57;;;42.67;;
9292;SDS011;69930;48.232;12.384;2024-03-08T05:32:31;66.22;;;44.90;;
9292;SDS011;69930;48.232;12.384;2024-03-08T05:34:59;63.88;;;43.45;;
9292;SDS011;69930;48.232;12.384;2024-03-08T05:37:26;68.25;;;45.00;;
9292;SDS011;69930;48.232;12.384;2024-03-08T05:39:53;65.85;;;42.83;;
9292;SDS011;69930;48.232;12.384;2024-03-08T05:42:20;64.00;;;43.08;;
9292;SDS011;69930;48.232;12.384;2024-03-08T05:44:47;64.47;;;43.90;;
9292;SDS011;69930;48.232;12.384;2024-03-08T05:47:14;67.75;;;45.42;;
9292;SDS011;69930;48.232;12.384;2024-03-08T05:49:45;62.10;;;43.78;;
9292;SDS011;69930;48.232;12.384;2024-03-08T05:52:12;63.10;;;43.33;;
9292;SDS011;69930;48.232;12.384;2024-03-08T05:54:40;66.10;;;45.60;;
9292;SDS011;69930;48.232;12.384;2024-03-08T05:57:08;64.53;;;42.55;;
9292;SDS011;69930;48.232;12.384;2024-03-08T05:59:35;59.28;;;40.58;;
9292;SDS011;69930;48.232;12.384;2024-03-08T06:02:02;62.67;;;41.92;;
9292;SDS011;69930;48.232;12.384;2024-03-08T06:04:30;65.75;;;44.22;;
9292;SDS011;69930;48.232;12.384;2024-03-08T06:06:58;61.75;;;42.60;;
9292;SDS011;69930;48.232;12.384;2024-03-08T06:09:25;67.18;;;44.35;;
9292;SDS011;69930;48.232;12.384;2024-03-08T06:11:52;61.97;;;44.05;;
9292;SDS011;69930;48.232;12.384;2024-03-08T06:14:20;61.67;;;43.15;;
9292;SDS011;69930;48.232;12.384;2024-03-08T06:16:48;57.13;;;41.78;;
9292;SDS011;69930;48.232;12.384;2024-03-08T06:19:16;63.38;;;44.30;;
9292;SDS011;69930;48.232;12.384;2024-03-08T06:21:43;62.58;;;44.38;;
9292;SDS011;69930;48.232;12.384;2024-03-08T06:24:12;69.00;;;43.58;;
9292;SDS011;69930;48.232;12.384;2024-03-08T06:26:40;64.47;;;43.17;;
9292;SDS011;69930;48.232;12.384;2024-03-08T06:29:07;59.70;;;42.35;;
9292;SDS011;69930;48.232;12.384;2024-03-08T06:31:35;55.30;;;40.83;;
9292;SDS011;69930;48.232;12.384;2024-03-08T06:34:04;63.05;;;41.65;;
9292;SDS011;69930;48.232;12.384;2024-03-08T06:36:33;53.22;;;40.97;;
9292;SDS011;69930;48.232;12.384;2024-03-08T06:39:00;56.90;;;40.13;;
9292;SDS011;69930;48.232;12.384;2024-03-08T06:41:35;54.65;;;40.88;;
9292;SDS011;69930;48.232;12.384;2024-03-08T06:44:03;56.33;;;40.67;;
9292;SDS011;69930;48.232;12.384;2024-03-08T06:46:30;57.30;;;40.25;;
9292;SDS011;69930;48.232;12.384;2024-03-08T06:48:57;53.13;;;40.45;;
9292;SDS011;69930;48.232;12.384;2024-03-08T06:51:24;55.47;;;40.78;;
9292;SDS011;69930;48.232;12.384;2024-03-08T06:53:51;54.97;;;41.35;;
9292;SDS011;69930;48.232;12.384;2024-03-08T06:56:18;54.45;;;40.33;;
9292;SDS011;69930;48.232;12.384;2024-03-08T06:58:47;51.17;;;39.65;;
9292;SDS011;69930;48.232;12.384;2024-03-08T07:01:15;55.35;;;41.13;;
9292;SDS011;69930;48.232;12.384;2024-03-08T07:03:42;53.90;;;39.72;;
9292;SDS011;69930;48.232;12.384;2024-03-08T07:06:10;57.22;;;41.08;;
9292;SDS011;69930;48.232;12.384;2024-03-08T07:08:37;54.90;;;39.25;;
9292;SDS011;69930;48.232;12.384;2024-03-08T07:11:06;58.72;;;41.45;;
9292;SDS011;69930;48.232;12.384;2024-03-08T07:13:33;55.20;;;40.92;;
9292;SDS011;69930;48.232;12.384;2024-03-08T07:16:01;50.63;;;39.08;;
9292;SDS011;69930;48.232;12.384;2024-03-08T07:18:29;49.03;;;37.33;;
9292;SDS011;69930;48.232;12.384;2024-03-08T07:20:57;53.85;;;39.40;;
9292;SDS011;69930;48.232;12.384;2024-03-08T07:23:24;51.47;;;37.40;;
9292;SDS011;69930;48.232;12.384;2024-03-08T07:26:08;51.33;;;38.30;;
9292;SDS011;69930;48.232;12.384;2024-03-08T07:28:35;53.33;;;39.25;;
9292;SDS011;69930;48.232;12.384;2024-03-08T07:31:04;49.75;;;37.38;;
9292;SDS011;69930;48.232;12.384;2024-03-08T07:33:46;50.47;;;37.15;;
9292;SDS011;69930;48.232;12.384;2024-03-08T07:36:15;51.90;;;38.22;;
9292;SDS011;69930;48.232;12.384;2024-03-08T07:38:42;57.90;;;42.95;;
9292;SDS011;69930;48.232;12.384;2024-03-08T07:41:12;54.13;;;39.42;;
9292;SDS011;69930;48.232;12.384;2024-03-08T07:43:39;50.70;;;39.05;;
9292;SDS011;69930;48.232;12.384;2024-03-08T07:46:07;49.05;;;36.92;;
9292;SDS011;69930;48.232;12.384;2024-03-08T07:48:36;54.03;;;40.92;;
9292;SDS011;69930;48.232;12.384;2024-03-08T07:51:03;47.80;;;35.88;;
9292;SDS011;69930;48.232;12.384;2024-03-08T07:53:30;49.40;;;36.72;;
9292;SDS011;69930;48.232;12.384;2024-03-08T07:55:57;47.65;;;36.72;;
9292;SDS011;69930;48.232;12.384;2024-03-08T07:58:25;49.08;;;37.58;;
9292;SDS011;69930;48.232;12.384;2024-03-08T08:00:53;44.63;;;34.75;;
9292;SDS011;69930;48.232;12.384;2024-03-08T08:03:22;42.33;;;33.95;;
9292;SDS011;69930;48.232;12.384;2024-03-08T08:05:49;42.88;;;33.13;;
9292;SDS011;69930;48.232;12.384;2024-03-08T08:08:16;44.00;;;34.08;;
9292;SDS011;69930;48.232;12.384;2024-03-08T08:10:43;44.70;;;34.05;;
9292;SDS011;69930;48.232;12.384;2024-03-08T08:13:10;40.25;;;33.25;;
9292;SDS011;69930;48.232;12.384;2024-03-08T08:15:38;41.00;;;32.97;;
9292;SDS011;69930;48.232;12.384;2024-03-08T08:18:05;39.97;;;32.45;;
9292;SDS011;69930;48.232;12.384;2024-03-08T08:20:36;40.90;;;32.20;;
9292;SDS011;69930;48.232;12.384;2024-03-08T08:23:03;39.28;;;31.63;;
9292;SDS011;69930;48.232;12.384;2024-03-08T08:25:31;38.85;;;30.98;;
9292;SDS011;69930;48.232;12.384;2024-03-08T08:27:59;36.85;;;29.13;;
9292;SDS011;69930;48.232;12.384;2024-03-08T08:30:29;37.13;;;30.52;;
9292;SDS011;69930;48.232;12.384;2024-03-08T08:32:58;44.55;;;37.25;;
9292;SDS011;69930;48.232;12.384;2024-03-08T08:35:26;40.40;;;31.10;;
9292;SDS011;69930;48.232;12.384;2024-03-08T08:37:55;37.10;;;30.70;;
9292;SDS011;69930;48.232;12.384;2024-03-08T08:40:24;37.85;;;29.98;;
9292;SDS011;69930;48.232;12.384;2024-03-08T08:42:51;36.90;;;30.95;;
9292;SDS011;69930;48.232;12.384;2024-03-08T08:45:18;40.40;;;32.55;;
9292;SDS011;69930;48.232;12.384;2024-03-08T08:47:46;38.58;;;29.77;;
9292;SDS011;69930;48.232;12.384;2024-03-08T08:50:14;39.85;;;32.13;;
9292;SDS011;69930;48.232;12.384;2024-03-08T08:52:48;35.75;;;30.20;;
9292;SDS011;69930;48.232;12.384;2024-03-08T08:55:17;35.47;;;29.85;;
9292;SDS011;69930;48.232;12.384;2024-03-08T08:57:46;33.75;;;28.98;;
9292;SDS011;69930;48.232;12.384;2024-03-08T09:00:14;32.55;;;27.85;;
9292;SDS011;69930;48.232;12.384;2024-03-08T09:02:41;36.83;;;29.90;;
9292;SDS011;69930;48.232;12.384;2024-03-08T09:05:09;33.88;;;28.92;;
9292;SDS011;69930;48.232;12.384;2024-03-08T09:07:37;33.38;;;28.25;;
9292;SDS011;69930;48.232;12.384;2024-03-08T09:10:04;34.22;;;28.02;;
9292;SDS011;69930;48.232;12.384;2024-03-08T09:12:33;35.08;;;29.17;;
9292;SDS011;69930;48.232;12.384;2024-03-08T09:15:01;28.33;;;25.17;;
9292;SDS011;69930;48.232;12.384;2024-03-08T09:17:28;31.08;;;26.83;;
9292;SDS011;69930;48.232;12.384;2024-03-08T09:19:55;31.25;;;27.45;;
9292;SDS011;69930;48.232;12.384;2024-03-08T09:22:23;32.70;;;28.05;;
9292;SDS011;69930;48.232;12.384;2024-03-08T09:24:50;32.15;;;27.65;;
9292;SDS011;69930;48.232;12.384;2024-03-08T09:27:17;31.83;;;27.55;;
9292;SDS011;69930;48.232;12.384;2024-03-08T09:29:46;30.13;;;26.92;;
9292;SDS011;69930;48.232;12.384;2024-03-08T09:32:13;30.05;;;26.42;;
9292;SDS011;69930;48.232;12.384;2024-03-08T09:34:40;28.65;;;24.95;;
9292;SDS011;69930;48.232;12.384;2024-03-08T09:37:07;29.65;;;26.42;;
9292;SDS011;69930;48.232;12.384;2024-03-08T09:39:35;34.80;;;27.15;;
9292;SDS011;69930;48.232;12.384;2024-03-08T09:42:02;31.45;;;27.65;;
9292;SDS011;69930;48.232;12.384;2024-03-08T09:44:31;29.90;;;26.38;;
9292;SDS011;69930;48.232;12.384;2024-03-08T09:46:59;31.98;;;26.63;;
9292;SDS011;69930;48.232;12.384;2024-03-08T09:49:28;29.83;;;25.45;;
9292;SDS011;69930;48.232;12.384;2024-03-08T09:51:55;30.92;;;24.90;;
9292;SDS011;69930;48.232;12.384;2024-03-08T09:54:22;30.85;;;25.33;;
9292;SDS011;69930;48.232;12.384;2024-03-08T09:56:50;29.35;;;25.92;;
9292;SDS011;69930;48.232;12.384;2024-03-08T09:59:18;26.40;;;23.63;;
9292;SDS011;69930;48.232;12.384;2024-03-08T10:02:14;27.33;;;23.95;;
9292;SDS011;69930;48.232;12.384;2024-03-08T10:04:42;26.70;;;23.80;;
9292;SDS011;69930;48.232;12.384;2024-03-08T10:07:11;27.23;;;24.30;;
9292;SDS011;69930;48.232;12.384;2024-03-08T10:09:38;24.23;;;21.63;;
9292;SDS011;69930;48.232;12.384;2024-03-08T10:12:07;26.17;;;23.20;;
9292;SDS011;69930;48.232;12.384;2024-03-08T10:14:38;28.98;;;24.85;;
9292;SDS011;69930;48.232;12.384;2024-03-08T10:17:07;30.27;;;26.98;;
9292;SDS011;69930;48.232;12.384;2024-03-08T10:19:35;25.27;;;22.58;;
9292;SDS011;69930;48.232;12.384;2024-03-08T10:22:02;24.42;;;21.85;;
9292;SDS011;69930;48.232;12.384;2024-03-08T10:24:30;26.23;;;23.17;;
9292;SDS011;69930;48.232;12.384;2024-03-08T10:26:59;26.52;;;23.63;;
9292;SDS011;69930;48.232;12.384;2024-03-08T10:29:30;26.63;;;23.73;;
9292;SDS011;69930;48.232;12.384;2024-03-08T10:34:48;24.90;;;22.30;;
9292;SDS011;69930;48.232;12.384;2024-03-08T10:37:16;26.27;;;23.38;;
9292;SDS011;69930;48.232;12.384;2024-03-08T10:39:51;25.27;;;22.65;;
9292;SDS011;69930;48.232;12.384;2024-03-08T10:42:35;29.80;;;24.50;;
9292;SDS011;69930;48.232;12.384;2024-03-08T10:45:09;27.77;;;23.13;;
9292;SDS011;69930;48.232;12.384;2024-03-08T10:47:47;25.73;;;22.92;;
9292;SDS011;69930;48.232;12.384;2024-03-08T10:50:20;25.35;;;22.52;;
9292;SDS011;69930;48.232;12.384;2024-03-08T10:52:48;24.90;;;22.30;;
9292;SDS011;69930;48.232;12.384;2024-03-08T10:55:16;23.40;;;21.00;;
9292;SDS011;69930;48.232;12.384;2024-03-08T10:57:46;25.98;;;23.15;;
9292;SDS011;69930;48.232;12.384;2024-03-08T11:00:13;23.88;;;21.48;;
9292;SDS011;69930;48.232;12.384;2024-03-08T11:02:43;24.30;;;21.80;;
9292;SDS011;69930;48.232;12.384;2024-03-08T11:05:11;23.50;;;20.92;;
9292;SDS011;69930;48.232;12.384;2024-03-08T11:07:59;24.48;;;21.73;;
9292;SDS011;69930;48.232;12.384;2024-03-08T11:10:26;24.20;;;21.60;;
9292;SDS011;69930;48.232;12.384;2024-03-08T11:15:49;23.38;;;20.98;;
9292;SDS011;69930;48.232;12.384;2024-03-08T11:18:19;24.10;;;21.48;;
9292;SDS011;69930;48.232;12.384;2024-03-08T11:20:46;21.70;;;19.50;;
9292;SDS011;69930;48.232;12.384;2024-03-08T11:23:17;22.63;;;20.33;;
9292;SDS011;69930;48.232;12.384;2024-03-08T11:25:50;22.05;;;19.70;;
9292;SDS011;69930;48.232;12.384;2024-03-08T11:28:18;21.02;;;18.75;;
9292;SDS011;69930;48.232;12.384;2024-03-08T11:30:47;21.52;;;19.25;;
9292;SDS011;69930;48.232;12.384;2024-03-08T11:33:48;22.13;;;18.10;;
9292;SDS011;69930;48.232;12.384;2024-03-08T11:36:20;23.50;;;18.63;;
9292;SDS011;69930;48.232;12.384;2024-03-08T11:38:51;20.73;;;18.15;;
9292;SDS011;69930;48.232;12.384;2024-03-08T11:41:20;21.23;;;18.95;;
9292;SDS011;69930;48.232;12.384;2024-03-08T11:43:48;20.08;;;17.83;;
9292;SDS011;69930;48.232;12.384;2024-03-08T11:46:16;21.45;;;19.15;;
9292;SDS011;69930;48.232;12.384;2024-03-08T11:48:44;20.60;;;18.40;;
9292;SDS011;69930;48.232;12.384;2024-03-08T11:51:14;20.85;;;18.67;;
9292;SDS011;69930;48.232;12.384;2024-03-08T11:53:44;20.25;;;18.00;;
9292;SDS011;69930;48.232;12.384;2024-03-08T11:56:13;20.15;;;18.02;;
9292;SDS011;69930;48.232;12.384;2024-03-08T11:58:41;20.35;;;17.75;;
9292;SDS011;69930;48.232;12.384;2024-03-08T12:01:08;20.35;;;17.52;;
9292;SDS011;69930;48.232;12.384;2024-03-08T12:03:37;18.73;;;16.83;;
9292;SDS011;69930;48.232;12.384;2024-03-08T12:06:05;23.08;;;18.27;;
9292;SDS011;69930;48.232;12.384;2024-03-08T12:08:35;19.13;;;17.23;;
9292;SDS011;69930;48.232;12.384;2024-03-08T12:11:03;20.13;;;18.02;;
9292;SDS011;69930;48.232;12.384;2024-03-08T12:13:32;20.20;;;18.10;;
9292;SDS011;69930;48.232;12.384;2024-03-08T12:16:01;20.02;;;17.92;;
9292;SDS011;69930;48.232;12.384;2024-03-08T12:18:32;18.73;;;16.48;;
9292;SDS011;69930;48.232;12.384;2024-03-08T12:21:04;17.45;;;15.52;;
9292;SDS011;69930;48.232;12.384;2024-03-08T12:23:32;16.92;;;14.65;;
9292;SDS011;69930;48.232;12.384;2024-03-08T12:26:08;16.27;;;14.60;;
9292;SDS011;69930;48.232;12.384;2024-03-08T12:28:39;17.00;;;15.27;;
9292;SDS011;69930;48.232;12.384;2024-03-08T12:31:07;19.27;;;16.98;;
9292;SDS011;69930;48.232;12.384;2024-03-08T12:33:35;18.90;;;16.90;;
9292;SDS011;69930;48.232;12.384;2024-03-08T12:36:04;16.88;;;15.07;;
9292;SDS011;69930;48.232;12.384;2024-03-08T12:38:33;17.25;;;15.55;;
9292;SDS011;69930;48.232;12.384;2024-03-08T12:41:01;16.58;;;14.95;;
9292;SDS011;69930;48.232;12.384;2024-03-08T12:43:28;15.48;;;13.93;;
9292;SDS011;69930;48.232;12.384;2024-03-08T12:45:58;17.05;;;15.38;;
9292;SDS011;69930;48.232;12.384;2024-03-08T12:51:21;16.55;;;14.82;;
9292;SDS011;69930;48.232;12.384;2024-03-08T12:53:48;19.08;;;16.40;;
9292;SDS011;69930;48.232;12.384;2024-03-08T12:56:28;18.02;;;15.65;;
9292;SDS011;69930;48.232;12.384;2024-03-08T12:58:56;17.48;;;15.68;;
9292;SDS011;69930;48.232;12.384;2024-03-08T13:01:27;19.25;;;16.63;;
9292;SDS011;69930;48.232;12.384;2024-03-08T13:03:54;18.58;;;14.40;;
9292;SDS011;69930;48.232;12.384;2024-03-08T13:06:21;16.25;;;14.65;;
9292;SDS011;69930;48.232;12.384;2024-03-08T13:08:49;16.80;;;15.10;;
9292;SDS011;69930;48.232;12.384;2024-03-08T13:11:18;19.55;;;17.45;;
9292;SDS011;69930;48.232;12.384;2024-03-08T13:13:45;18.85;;;16.95;;
9292;SDS011;69930;48.232;12.384;2024-03-08T13:16:12;18.40;;;16.50;;
9292;SDS011;69930;48.232;12.384;2024-03-08T13:18:43;18.95;;;16.95;;
9292;SDS011;69930;48.232;12.384;2024-03-08T13:21:12;18.58;;;16.60;;
9292;SDS011;69930;48.232;12.384;2024-03-08T13:23:40;18.35;;;16.42;;
9292;SDS011;69930;48.232;12.384;2024-03-08T13:26:12;19.10;;;17.17;;
9292;SDS011;69930;48.232;12.384;2024-03-08T13:28:40;19.42;;;17.27;;
9292;SDS011;69930;48.232;12.384;2024-03-08T13:31:07;17.73;;;15.88;;
9292;SDS011;69930;48.232;12.384;2024-03-08T13:33:35;18.20;;;16.25;;
9292;SDS011;69930;48.232;12.384;2024-03-08T13:36:06;16.70;;;14.90;;
9292;SDS011;69930;48.232;12.384;2024-03-08T13:38:40;16.40;;;14.68;;
9292;SDS011;69930;48.232;12.384;2024-03-08T13:41:11;17.85;;;15.40;;
9292;SDS011;69930;48.232;12.384;2024-03-08T13:43:40;16.77;;;15.07;;
9292;SDS011;69930;48.232;12.384;2024-03-08T13:46:07;18.23;;;16.30;;
9292;SDS011;69930;48.232;12.384;2024-03-08T13:48:35;19.83;;;17.73;;
9292;SDS011;69930;48.232;12.384;2024-03-08T13:51:04;20.45;;;18.33;;
9292;SDS011;69930;48.232;12.384;2024-03-08T13:53:35;19.02;;;17.10;;
9292;SDS011;69930;48.232;12.384;2024-03-08T13:56:02;18.08;;;16.25;;
9292;SDS011;69930;48.232;12.384;2024-03-08T13:58:30;19.80;;;16.98;;
9292;SDS011;69930;48.232;12.384;2024-03-08T14:00:57;18.10;;;16.27;;
9292;SDS011;69930;48.232;12.384;2024-03-08T14:03:25;19.08;;;17.08;;
9292;SDS011;69930;48.232;12.384;2024-03-08T14:05:52;23.63;;;21.13;;
9292;SDS011;69930;48.232;12.384;2024-03-08T14:08:22;20.60;;;18.50;;
9292;SDS011;69930;48.232;12.384;2024-03-08T14:10:50;20.23;;;17.85;;
9292;SDS011;69930;48.232;12.384;2024-03-08T14:13:18;20.42;;;17.88;;
9292;SDS011;69930;48.232;12.384;2024-03-08T14:15:46;20.15;;;18.05;;
9292;SDS011;69930;48.232;12.384;2024-03-08T14:18:13;28.17;;;25.23;;
9292;SDS011;69930;48.232;12.384;2024-03-08T14:20:40;35.85;;;28.48;;
9292;SDS011;69930;48.232;12.384;2024-03-08T14:23:08;24.15;;;20.45;;
9292;SDS011;69930;48.232;12.384;2024-03-08T14:25:36;20.92;;;18.73;;
9292;SDS011;69930;48.232;12.384;2024-03-08T14:28:04;21.98;;;18.67;;
9292;SDS011;69930;48.232;12.384;2024-03-08T14:30:32;21.98;;;19.55;;
9292;SDS011;69930;48.232;12.384;2024-03-08T14:33:01;17.85;;;16.10;;
9292;SDS011;69930;48.232;12.384;2024-03-08T14:35:29;18.05;;;16.25;;
9292;SDS011;69930;48.232;12.384;2024-03-08T14:37:57;18.27;;;16.30;;